Sunrise Beach, Texas
Current Conditions -  °F | °C
As of 9:35 PM on Monday 20 Oct 2014 (Local Time) from KAQO Reporting Station
Clear Clear  
Wind Chill: 64°   Ceiling: Unl
Heat Index: 64°   Visibility: 10mi
Dew Point: 59°   Wind: 0mph
Humidity: 83%   Direction: NA
Pressure: 30.08"   Gusts: NA
Location:  30.6126°N, 98.6923°W
Report Text: KAQO 210235Z AUTO 00000KT 10SM CLR 18/15 A3008 RMK AO2
Loading
Personal Weather Stations






























Interactive Weather Map
Tropical Storm Tracking
New forecast layout! Learn more

10-Day Weather Forecast

Advertisements
Track Severe Weather on mobile